sensor_id;sensor_type;location;lat;lon;timestamp;P1;durP1;ratioP1;P2;durP2;ratioP2
6348;SDS011;3207;42.648;23.406;2023-03-01T00:02:21;17.27;;;13.20;;
6348;SDS011;3207;42.648;23.406;2023-03-01T00:04:48;19.20;;;13.33;;
6348;SDS011;3207;42.648;23.406;2023-03-01T00:07:15;19.03;;;13.30;;
6348;SDS011;3207;42.648;23.406;2023-03-01T00:09:43;17.03;;;13.07;;
6348;SDS011;3207;42.648;23.406;2023-03-01T00:12:11;19.37;;;13.83;;
6348;SDS011;3207;42.648;23.406;2023-03-01T00:14:38;18.93;;;14.20;;
6348;SDS011;3207;42.648;23.406;2023-03-01T00:17:04;25.43;;;16.97;;
6348;SDS011;3207;42.648;23.406;2023-03-01T00:19:31;21.03;;;15.30;;
6348;SDS011;3207;42.648;23.406;2023-03-01T00:21:58;21.07;;;14.67;;
6348;SDS011;3207;42.648;23.406;2023-03-01T00:24:25;20.33;;;14.23;;
6348;SDS011;3207;42.648;23.406;2023-03-01T00:26:54;18.17;;;13.73;;
6348;SDS011;3207;42.648;23.406;2023-03-01T00:29:21;19.73;;;13.43;;
6348;SDS011;3207;42.648;23.406;2023-03-01T00:31:48;19.27;;;13.97;;
6348;SDS011;3207;42.648;23.406;2023-03-01T00:34:15;18.93;;;13.50;;
6348;SDS011;3207;42.648;23.406;2023-03-01T00:36:42;22.20;;;15.13;;
6348;SDS011;3207;42.648;23.406;2023-03-01T00:39:10;20.77;;;14.67;;
6348;SDS011;3207;42.648;23.406;2023-03-01T00:41:38;20.83;;;14.60;;
6348;SDS011;3207;42.648;23.406;2023-03-01T00:44:07;19.90;;;13.87;;
6348;SDS011;3207;42.648;23.406;2023-03-01T00:46:34;17.13;;;13.20;;
6348;SDS011;3207;42.648;23.406;2023-03-01T00:49:01;18.50;;;13.63;;
6348;SDS011;3207;42.648;23.406;2023-03-01T00:51:29;19.30;;;13.17;;
6348;SDS011;3207;42.648;23.406;2023-03-01T00:53:57;19.00;;;13.30;;
6348;SDS011;3207;42.648;23.406;2023-03-01T00:56:25;23.13;;;16.00;;
6348;SDS011;3207;42.648;23.406;2023-03-01T00:58:52;22.13;;;15.87;;
6348;SDS011;3207;42.648;23.406;2023-03-01T01:01:22;19.63;;;14.43;;
6348;SDS011;3207;42.648;23.406;2023-03-01T01:03:52;20.90;;;12.33;;
6348;SDS011;3207;42.648;23.406;2023-03-01T01:06:22;17.10;;;12.73;;
6348;SDS011;3207;42.648;23.406;2023-03-01T01:08:50;20.73;;;14.37;;
6348;SDS011;3207;42.648;23.406;2023-03-01T01:11:18;23.60;;;16.03;;
6348;SDS011;3207;42.648;23.406;2023-03-01T01:13:46;23.43;;;15.60;;
6348;SDS011;3207;42.648;23.406;2023-03-01T01:16:13;15.90;;;12.30;;
6348;SDS011;3207;42.648;23.406;2023-03-01T01:18:42;16.83;;;12.00;;
6348;SDS011;3207;42.648;23.406;2023-03-01T01:21:10;15.87;;;12.50;;
6348;SDS011;3207;42.648;23.406;2023-03-01T01:23:39;17.87;;;12.87;;
6348;SDS011;3207;42.648;23.406;2023-03-01T01:26:07;19.50;;;13.33;;
6348;SDS011;3207;42.648;23.406;2023-03-01T01:28:35;19.07;;;13.53;;
6348;SDS011;3207;42.648;23.406;2023-03-01T01:31:02;16.47;;;13.43;;
6348;SDS011;3207;42.648;23.406;2023-03-01T01:33:29;18.13;;;12.83;;
6348;SDS011;3207;42.648;23.406;2023-03-01T01:35:57;21.60;;;12.43;;
6348;SDS011;3207;42.648;23.406;2023-03-01T01:38:24;18.87;;;12.17;;
6348;SDS011;3207;42.648;23.406;2023-03-01T01:40:51;13.40;;;10.27;;
6348;SDS011;3207;42.648;23.406;2023-03-01T01:43:19;16.57;;;12.10;;
6348;SDS011;3207;42.648;23.406;2023-03-01T01:45:48;15.63;;;12.17;;
6348;SDS011;3207;42.648;23.406;2023-03-01T01:48:16;14.83;;;10.20;;
6348;SDS011;3207;42.648;23.406;2023-03-01T01:50:47;15.73;;;11.90;;
6348;SDS011;3207;42.648;23.406;2023-03-01T01:53:20;14.20;;;11.10;;
6348;SDS011;3207;42.648;23.406;2023-03-01T01:55:50;15.77;;;11.30;;
6348;SDS011;3207;42.648;23.406;2023-03-01T01:58:22;18.30;;;12.37;;
6348;SDS011;3207;42.648;23.406;2023-03-01T02:00:50;18.80;;;13.30;;
6348;SDS011;3207;42.648;23.406;2023-03-01T02:03:18;15.97;;;12.37;;
6348;SDS011;3207;42.648;23.406;2023-03-01T02:05:50;15.27;;;12.00;;
6348;SDS011;3207;42.648;23.406;2023-03-01T02:08:23;16.17;;;11.63;;
6348;SDS011;3207;42.648;23.406;2023-03-01T02:10:53;17.20;;;12.07;;
6348;SDS011;3207;42.648;23.406;2023-03-01T02:13:22;18.13;;;12.47;;
6348;SDS011;3207;42.648;23.406;2023-03-01T02:15:49;15.97;;;11.43;;
6348;SDS011;3207;42.648;23.406;2023-03-01T02:18:16;15.37;;;11.87;;
6348;SDS011;3207;42.648;23.406;2023-03-01T02:20:48;13.97;;;10.80;;
6348;SDS011;3207;42.648;23.406;2023-03-01T02:23:28;15.47;;;12.00;;
6348;SDS011;3207;42.648;23.406;2023-03-01T02:25:57;14.20;;;10.43;;
6348;SDS011;3207;42.648;23.406;2023-03-01T02:28:30;19.50;;;11.63;;
6348;SDS011;3207;42.648;23.406;2023-03-01T02:30:58;14.57;;;11.53;;
6348;SDS011;3207;42.648;23.406;2023-03-01T02:33:43;16.80;;;11.90;;
6348;SDS011;3207;42.648;23.406;2023-03-01T02:36:14;13.87;;;10.57;;
6348;SDS011;3207;42.648;23.406;2023-03-01T02:38:44;16.50;;;10.97;;
6348;SDS011;3207;42.648;23.406;2023-03-01T02:41:11;14.93;;;11.37;;
6348;SDS011;3207;42.648;23.406;2023-03-01T02:43:43;15.17;;;11.43;;
6348;SDS011;3207;42.648;23.406;2023-03-01T02:46:14;13.87;;;10.67;;
6348;SDS011;3207;42.648;23.406;2023-03-01T02:48:43;15.17;;;12.13;;
6348;SDS011;3207;42.648;23.406;2023-03-01T02:51:17;19.97;;;12.30;;
6348;SDS011;3207;42.648;23.406;2023-03-01T02:53:55;15.97;;;11.40;;
6348;SDS011;3207;42.648;23.406;2023-03-01T02:56:30;16.90;;;11.23;;
6348;SDS011;3207;42.648;23.406;2023-03-01T02:58:59;17.03;;;12.33;;
6348;SDS011;3207;42.648;23.406;2023-03-01T03:01:27;16.83;;;12.07;;
6348;SDS011;3207;42.648;23.406;2023-03-01T03:04:01;18.37;;;12.03;;
6348;SDS011;3207;42.648;23.406;2023-03-01T03:06:29;21.67;;;12.20;;
6348;SDS011;3207;42.648;23.406;2023-03-01T03:08:56;15.10;;;11.80;;
6348;SDS011;3207;42.648;23.406;2023-03-01T03:11:23;14.80;;;11.57;;
6348;SDS011;3207;42.648;23.406;2023-03-01T03:13:49;20.83;;;13.43;;
6348;SDS011;3207;42.648;23.406;2023-03-01T03:16:18;20.80;;;14.07;;
6348;SDS011;3207;42.648;23.406;2023-03-01T03:18:45;17.67;;;12.93;;
6348;SDS011;3207;42.648;23.406;2023-03-01T03:21:12;22.17;;;13.30;;
6348;SDS011;3207;42.648;23.406;2023-03-01T03:23:40;23.40;;;12.90;;
6348;SDS011;3207;42.648;23.406;2023-03-01T03:26:07;17.30;;;13.27;;
6348;SDS011;3207;42.648;23.406;2023-03-01T03:28:34;21.23;;;13.47;;
6348;SDS011;3207;42.648;23.406;2023-03-01T03:31:05;21.33;;;13.83;;
6348;SDS011;3207;42.648;23.406;2023-03-01T03:33:34;19.97;;;13.50;;
6348;SDS011;3207;42.648;23.406;2023-03-01T03:36:01;22.10;;;14.53;;
6348;SDS011;3207;42.648;23.406;2023-03-01T03:38:29;17.83;;;14.10;;
6348;SDS011;3207;42.648;23.406;2023-03-01T03:40:59;22.13;;;13.20;;
6348;SDS011;3207;42.648;23.406;2023-03-01T03:43:33;27.00;;;14.60;;
6348;SDS011;3207;42.648;23.406;2023-03-01T03:46:01;19.27;;;14.20;;
6348;SDS011;3207;42.648;23.406;2023-03-01T03:48:30;21.23;;;14.40;;
6348;SDS011;3207;42.648;23.406;2023-03-01T03:50:59;20.73;;;14.63;;
6348;SDS011;3207;42.648;23.406;2023-03-01T03:53:26;24.63;;;14.67;;
6348;SDS011;3207;42.648;23.406;2023-03-01T03:55:55;24.07;;;15.10;;
6348;SDS011;3207;42.648;23.406;2023-03-01T03:58:22;27.23;;;14.67;;
6348;SDS011;3207;42.648;23.406;2023-03-01T04:00:50;25.90;;;14.93;;
6348;SDS011;3207;42.648;23.406;2023-03-01T04:03:18;25.77;;;14.17;;
6348;SDS011;3207;42.648;23.406;2023-03-01T04:05:46;29.03;;;15.33;;
6348;SDS011;3207;42.648;23.406;2023-03-01T04:08:17;22.00;;;15.70;;
6348;SDS011;3207;42.648;23.406;2023-03-01T04:10:46;26.70;;;16.93;;
6348;SDS011;3207;42.648;23.406;2023-03-01T04:13:15;27.37;;;15.37;;
6348;SDS011;3207;42.648;23.406;2023-03-01T04:15:45;23.43;;;14.53;;
6348;SDS011;3207;42.648;23.406;2023-03-01T04:18:12;21.23;;;15.07;;
6348;SDS011;3207;42.648;23.406;2023-03-01T04:20:42;18.90;;;14.63;;
6348;SDS011;3207;42.648;23.406;2023-03-01T04:23:11;23.87;;;15.63;;
6348;SDS011;3207;42.648;23.406;2023-03-01T04:25:46;23.30;;;14.87;;
6348;SDS011;3207;42.648;23.406;2023-03-01T04:28:18;21.07;;;15.60;;
6348;SDS011;3207;42.648;23.406;2023-03-01T04:30:45;21.43;;;14.20;;
6348;SDS011;3207;42.648;23.406;2023-03-01T04:33:12;26.40;;;17.10;;
6348;SDS011;3207;42.648;23.406;2023-03-01T04:35:39;25.27;;;15.20;;
6348;SDS011;3207;42.648;23.406;2023-03-01T04:38:06;25.17;;;15.30;;
6348;SDS011;3207;42.648;23.406;2023-03-01T04:40:33;25.03;;;15.50;;
6348;SDS011;3207;42.648;23.406;2023-03-01T04:43:01;26.37;;;16.70;;
6348;SDS011;3207;42.648;23.406;2023-03-01T04:45:28;23.67;;;16.03;;
6348;SDS011;3207;42.648;23.406;2023-03-01T04:47:55;22.23;;;14.50;;
6348;SDS011;3207;42.648;23.406;2023-03-01T04:50:23;18.80;;;14.50;;
6348;SDS011;3207;42.648;23.406;2023-03-01T04:52:50;24.63;;;15.53;;
6348;SDS011;3207;42.648;23.406;2023-03-01T04:55:18;27.37;;;16.10;;
6348;SDS011;3207;42.648;23.406;2023-03-01T04:57:45;23.47;;;14.87;;
6348;SDS011;3207;42.648;23.406;2023-03-01T05:00:15;29.00;;;15.60;;
6348;SDS011;3207;42.648;23.406;2023-03-01T05:02:49;31.60;;;16.13;;
6348;SDS011;3207;42.648;23.406;2023-03-01T05:05:24;25.67;;;15.53;;
6348;SDS011;3207;42.648;23.406;2023-03-01T05:07:53;23.27;;;15.30;;
6348;SDS011;3207;42.648;23.406;2023-03-01T05:10:21;24.43;;;15.37;;
6348;SDS011;3207;42.648;23.406;2023-03-01T05:12:49;24.50;;;14.60;;
6348;SDS011;3207;42.648;23.406;2023-03-01T05:15:29;26.20;;;14.17;;
6348;SDS011;3207;42.648;23.406;2023-03-01T05:17:57;22.60;;;14.03;;
6348;SDS011;3207;42.648;23.406;2023-03-01T05:20:25;22.60;;;14.53;;
6348;SDS011;3207;42.648;23.406;2023-03-01T05:22:54;29.13;;;16.27;;
6348;SDS011;3207;42.648;23.406;2023-03-01T05:25:23;20.23;;;14.70;;
6348;SDS011;3207;42.648;23.406;2023-03-01T05:27:51;25.53;;;15.20;;
6348;SDS011;3207;42.648;23.406;2023-03-01T05:30:18;25.43;;;14.20;;
6348;SDS011;3207;42.648;23.406;2023-03-01T05:32:47;24.00;;;16.33;;
6348;SDS011;3207;42.648;23.406;2023-03-01T05:35:20;22.07;;;14.73;;
6348;SDS011;3207;42.648;23.406;2023-03-01T05:37:48;23.43;;;15.43;;
6348;SDS011;3207;42.648;23.406;2023-03-01T05:40:16;22.67;;;15.93;;
6348;SDS011;3207;42.648;23.406;2023-03-01T05:42:45;21.60;;;14.23;;
6348;SDS011;3207;42.648;23.406;2023-03-01T05:45:14;24.10;;;14.63;;
6348;SDS011;3207;42.648;23.406;2023-03-01T05:47:43;20.97;;;15.63;;
6348;SDS011;3207;42.648;23.406;2023-03-01T05:50:13;20.13;;;14.77;;
6348;SDS011;3207;42.648;23.406;2023-03-01T05:52:44;22.70;;;14.90;;
6348;SDS011;3207;42.648;23.406;2023-03-01T05:55:11;23.83;;;15.20;;
6348;SDS011;3207;42.648;23.406;2023-03-01T05:57:38;22.30;;;15.27;;
6348;SDS011;3207;42.648;23.406;2023-03-01T06:00:05;24.10;;;15.00;;
6348;SDS011;3207;42.648;23.406;2023-03-01T06:02:33;19.73;;;14.33;;
6348;SDS011;3207;42.648;23.406;2023-03-01T06:05:00;21.30;;;15.10;;
6348;SDS011;3207;42.648;23.406;2023-03-01T06:07:29;22.90;;;14.87;;
6348;SDS011;3207;42.648;23.406;2023-03-01T06:09:56;24.30;;;14.77;;
6348;SDS011;3207;42.648;23.406;2023-03-01T06:12:22;20.83;;;14.37;;
6348;SDS011;3207;42.648;23.406;2023-03-01T06:14:49;22.63;;;14.03;;
6348;SDS011;3207;42.648;23.406;2023-03-01T06:17:16;19.70;;;13.57;;
6348;SDS011;3207;42.648;23.406;2023-03-01T06:19:43;19.00;;;14.30;;
6348;SDS011;3207;42.648;23.406;2023-03-01T06:22:10;19.87;;;14.33;;
6348;SDS011;3207;42.648;23.406;2023-03-01T06:24:38;18.90;;;14.03;;
6348;SDS011;3207;42.648;23.406;2023-03-01T06:27:05;20.17;;;15.67;;
6348;SDS011;3207;42.648;23.406;2023-03-01T06:29:32;21.33;;;14.47;;
6348;SDS011;3207;42.648;23.406;2023-03-01T06:31:58;23.67;;;14.93;;
6348;SDS011;3207;42.648;23.406;2023-03-01T06:34:25;24.97;;;14.73;;
6348;SDS011;3207;42.648;23.406;2023-03-01T06:36:52;21.83;;;15.23;;
6348;SDS011;3207;42.648;23.406;2023-03-01T06:39:19;25.47;;;16.00;;
6348;SDS011;3207;42.648;23.406;2023-03-01T06:41:50;22.00;;;16.53;;
6348;SDS011;3207;42.648;23.406;2023-03-01T06:44:17;20.43;;;14.00;;
6348;SDS011;3207;42.648;23.406;2023-03-01T06:46:43;24.80;;;15.87;;
6348;SDS011;3207;42.648;23.406;2023-03-01T06:49:10;22.00;;;15.23;;
6348;SDS011;3207;42.648;23.406;2023-03-01T06:51:37;22.50;;;15.20;;
6348;SDS011;3207;42.648;23.406;2023-03-01T06:54:04;22.23;;;15.10;;
6348;SDS011;3207;42.648;23.406;2023-03-01T06:56:31;22.97;;;15.03;;
6348;SDS011;3207;42.648;23.406;2023-03-01T06:59:00;23.27;;;16.37;;
6348;SDS011;3207;42.648;23.406;2023-03-01T07:01:27;24.47;;;16.00;;
6348;SDS011;3207;42.648;23.406;2023-03-01T07:03:54;25.20;;;15.80;;
6348;SDS011;3207;42.648;23.406;2023-03-01T07:06:22;25.13;;;16.20;;
6348;SDS011;3207;42.648;23.406;2023-03-01T07:08:49;21.73;;;15.93;;
6348;SDS011;3207;42.648;23.406;2023-03-01T07:11:16;22.83;;;16.47;;
6348;SDS011;3207;42.648;23.406;2023-03-01T07:13:43;22.47;;;16.17;;
6348;SDS011;3207;42.648;23.406;2023-03-01T07:16:11;21.83;;;16.47;;
6348;SDS011;3207;42.648;23.406;2023-03-01T07:18:39;23.13;;;16.50;;
6348;SDS011;3207;42.648;23.406;2023-03-01T07:21:06;24.03;;;16.20;;
6348;SDS011;3207;42.648;23.406;2023-03-01T07:23:34;23.63;;;15.93;;
6348;SDS011;3207;42.648;23.406;2023-03-01T07:26:01;19.93;;;14.93;;
6348;SDS011;3207;42.648;23.406;2023-03-01T07:28:27;23.97;;;15.87;;
6348;SDS011;3207;42.648;23.406;2023-03-01T07:30:58;23.33;;;16.67;;
6348;SDS011;3207;42.648;23.406;2023-03-01T07:33:29;22.03;;;15.93;;
6348;SDS011;3207;42.648;23.406;2023-03-01T07:35:56;28.23;;;16.17;;
6348;SDS011;3207;42.648;23.406;2023-03-01T07:38:24;22.70;;;16.30;;
6348;SDS011;3207;42.648;23.406;2023-03-01T07:40:51;21.37;;;15.43;;
6348;SDS011;3207;42.648;23.406;2023-03-01T07:43:17;21.93;;;16.27;;
6348;SDS011;3207;42.648;23.406;2023-03-01T07:45:45;22.60;;;15.93;;
6348;SDS011;3207;42.648;23.406;2023-03-01T07:48:12;23.60;;;15.87;;
6348;SDS011;3207;42.648;23.406;2023-03-01T07:50:40;25.90;;;15.23;;
6348;SDS011;3207;42.648;23.406;2023-03-01T07:53:08;18.27;;;13.53;;
6348;SDS011;3207;42.648;23.406;2023-03-01T07:55:35;19.57;;;14.67;;
6348;SDS011;3207;42.648;23.406;2023-03-01T07:58:02;22.80;;;16.30;;
6348;SDS011;3207;42.648;23.406;2023-03-01T08:00:29;19.13;;;13.43;;
6348;SDS011;3207;42.648;23.406;2023-03-01T08:02:58;20.30;;;14.53;;
6348;SDS011;3207;42.648;23.406;2023-03-01T08:05:26;21.00;;;15.87;;
6348;SDS011;3207;42.648;23.406;2023-03-01T08:07:54;22.57;;;15.77;;
6348;SDS011;3207;42.648;23.406;2023-03-01T08:10:21;21.50;;;14.03;;
6348;SDS011;3207;42.648;23.406;2023-03-01T08:12:48;15.20;;;13.40;;
6348;SDS011;3207;42.648;23.406;2023-03-01T08:15:21;18.17;;;13.57;;
6348;SDS011;3207;42.648;23.406;2023-03-01T08:17:48;17.47;;;12.90;;
6348;SDS011;3207;42.648;23.406;2023-03-01T08:20:15;13.67;;;11.73;;
6348;SDS011;3207;42.648;23.406;2023-03-01T08:22:42;15.23;;;12.37;;
6348;SDS011;3207;42.648;23.406;2023-03-01T08:25:10;15.07;;;11.17;;
6348;SDS011;3207;42.648;23.406;2023-03-01T08:27:37;14.23;;;10.63;;
6348;SDS011;3207;42.648;23.406;2023-03-01T08:30:05;16.10;;;11.67;;
6348;SDS011;3207;42.648;23.406;2023-03-01T08:32:35;16.53;;;11.60;;
6348;SDS011;3207;42.648;23.406;2023-03-01T08:35:02;14.80;;;11.57;;
6348;SDS011;3207;42.648;23.406;2023-03-01T08:37:29;15.37;;;11.73;;
6348;SDS011;3207;42.648;23.406;2023-03-01T08:39:57;15.53;;;11.33;;
6348;SDS011;3207;42.648;23.406;2023-03-01T08:42:26;18.10;;;11.57;;
6348;SDS011;3207;42.648;23.406;2023-03-01T08:44:53;13.53;;;10.67;;
6348;SDS011;3207;42.648;23.406;2023-03-01T08:47:20;13.77;;;10.67;;
6348;SDS011;3207;42.648;23.406;2023-03-01T08:49:48;12.20;;;8.70;;
6348;SDS011;3207;42.648;23.406;2023-03-01T08:52:16;12.30;;;9.40;;
6348;SDS011;3207;42.648;23.406;2023-03-01T08:54:43;12.33;;;10.30;;
6348;SDS011;3207;42.648;23.406;2023-03-01T08:57:09;11.63;;;9.37;;
6348;SDS011;3207;42.648;23.406;2023-03-01T08:59:39;10.70;;;7.63;;
6348;SDS011;3207;42.648;23.406;2023-03-01T09:02:10;10.20;;;8.43;;
6348;SDS011;3207;42.648;23.406;2023-03-01T09:04:38;11.97;;;9.70;;
6348;SDS011;3207;42.648;23.406;2023-03-01T09:07:05;13.80;;;9.00;;
6348;SDS011;3207;42.648;23.406;2023-03-01T09:09:32;11.80;;;8.60;;
6348;SDS011;3207;42.648;23.406;2023-03-01T09:11:59;9.63;;;7.93;;
6348;SDS011;3207;42.648;23.406;2023-03-01T09:14:26;14.13;;;9.00;;
6348;SDS011;3207;42.648;23.406;2023-03-01T09:16:54;8.93;;;8.03;;
6348;SDS011;3207;42.648;23.406;2023-03-01T09:19:22;10.07;;;8.80;;
6348;SDS011;3207;42.648;23.406;2023-03-01T09:21:48;12.03;;;7.80;;
6348;SDS011;3207;42.648;23.406;2023-03-01T09:24:19;10.97;;;8.80;;
6348;SDS011;3207;42.648;23.406;2023-03-01T09:26:47;9.47;;;7.83;;
6348;SDS011;3207;42.648;23.406;2023-03-01T09:29:14;11.60;;;8.47;;
6348;SDS011;3207;42.648;23.406;2023-03-01T09:31:41;10.87;;;8.97;;
6348;SDS011;3207;42.648;23.406;2023-03-01T09:34:10;13.33;;;8.97;;
6348;SDS011;3207;42.648;23.406;2023-03-01T09:36:38;13.03;;;8.23;;
6348;SDS011;3207;42.648;23.406;2023-03-01T09:39:05;11.93;;;8.60;;
6348;SDS011;3207;42.648;23.406;2023-03-01T09:41:43;17.33;;;9.00;;
6348;SDS011;3207;42.648;23.406;2023-03-01T09:44:15;11.40;;;9.27;;
6348;SDS011;3207;42.648;23.406;2023-03-01T09:46:48;12.53;;;9.30;;
6348;SDS011;3207;42.648;23.406;2023-03-01T09:49:18;14.63;;;9.67;;
6348;SDS011;3207;42.648;23.406;2023-03-01T09:51:54;13.10;;;9.60;;
6348;SDS011;3207;42.648;23.406;2023-03-01T09:54:24;13.10;;;9.03;;
6348;SDS011;3207;42.648;23.406;2023-03-01T09:56:56;12.53;;;8.43;;
6348;SDS011;3207;42.648;23.406;2023-03-01T09:59:28;14.40;;;9.20;;
6348;SDS011;3207;42.648;23.406;2023-03-01T10:01:59;13.70;;;9.43;;
6348;SDS011;3207;42.648;23.406;2023-03-01T10:04:41;11.03;;;9.43;;
6348;SDS011;3207;42.648;23.406;2023-03-01T10:07:16;12.13;;;10.00;;
6348;SDS011;3207;42.648;23.406;2023-03-01T10:09:52;14.47;;;10.07;;
6348;SDS011;3207;42.648;23.406;2023-03-01T10:12:20;11.10;;;8.87;;
6348;SDS011;3207;42.648;23.406;2023-03-01T10:14:52;12.63;;;9.97;;
6348;SDS011;3207;42.648;23.406;2023-03-01T10:17:25;12.70;;;9.17;;
6348;SDS011;3207;42.648;23.406;2023-03-01T10:20:01;14.67;;;10.20;;
6348;SDS011;3207;42.648;23.406;2023-03-01T10:22:41;13.67;;;10.33;;
6348;SDS011;3207;42.648;23.406;2023-03-01T10:25:12;15.23;;;9.80;;
6348;SDS011;3207;42.648;23.406;2023-03-01T10:27:43;16.73;;;9.97;;
6348;SDS011;3207;42.648;23.406;2023-03-01T10:30:29;14.60;;;9.23;;
6348;SDS011;3207;42.648;23.406;2023-03-01T10:33:01;10.27;;;8.07;;
6348;SDS011;3207;42.648;23.406;2023-03-01T10:35:33;11.07;;;7.47;;
6348;SDS011;3207;42.648;23.406;2023-03-01T10:38:04;8.90;;;6.47;;
6348;SDS011;3207;42.648;23.406;2023-03-01T10:40:33;8.17;;;7.37;;
6348;SDS011;3207;42.648;23.406;2023-03-01T10:43:01;7.97;;;6.33;;
6348;SDS011;3207;42.648;23.406;2023-03-01T10:45:31;9.33;;;7.20;;
6348;SDS011;3207;42.648;23.406;2023-03-01T10:48:08;6.77;;;6.00;;
6348;SDS011;3207;42.648;23.406;2023-03-01T10:50:41;8.47;;;6.43;;
6348;SDS011;3207;42.648;23.406;2023-03-01T10:53:19;9.90;;;6.70;;
6348;SDS011;3207;42.648;23.406;2023-03-01T10:55:56;9.27;;;6.47;;
6348;SDS011;3207;42.648;23.406;2023-03-01T10:58:24;9.53;;;7.33;;
6348;SDS011;3207;42.648;23.406;2023-03-01T11:00:52;9.90;;;7.37;;
6348;SDS011;3207;42.648;23.406;2023-03-01T11:03:21;7.17;;;6.43;;
6348;SDS011;3207;42.648;23.406;2023-03-01T11:05:52;8.30;;;6.30;;
6348;SDS011;3207;42.648;23.406;2023-03-01T11:08:34;6.43;;;5.67;;
6348;SDS011;3207;42.648;23.406;2023-03-01T11:11:04;8.50;;;6.73;;
6348;SDS011;3207;42.648;23.406;2023-03-01T11:16:33;6.43;;;5.40;;
6348;SDS011;3207;42.648;23.406;2023-03-01T11:19:16;7.77;;;6.30;;
6348;SDS011;3207;42.648;23.406;2023-03-01T11:21:58;7.93;;;6.73;;
6348;SDS011;3207;42.648;23.406;2023-03-01T11:24:33;8.33;;;6.97;;
6348;SDS011;3207;42.648;23.406;2023-03-01T11:27:08;8.13;;;7.30;;
6348;SDS011;3207;42.648;23.406;2023-03-01T11:29:42;7.77;;;6.00;;
6348;SDS011;3207;42.648;23.406;2023-03-01T11:32:16;7.33;;;6.10;;
6348;SDS011;3207;42.648;23.406;2023-03-01T11:34:43;7.17;;;6.33;;
6348;SDS011;3207;42.648;23.406;2023-03-01T11:37:19;7.70;;;6.10;;
6348;SDS011;3207;42.648;23.406;2023-03-01T11:39:54;7.17;;;6.33;;
6348;SDS011;3207;42.648;23.406;2023-03-01T11:42:29;8.60;;;6.50;;
6348;SDS011;3207;42.648;23.406;2023-03-01T11:45:10;7.93;;;6.17;;
6348;SDS011;3207;42.648;23.406;2023-03-01T11:47:44;7.33;;;6.50;;
6348;SDS011;3207;42.648;23.406;2023-03-01T11:50:23;6.67;;;5.83;;
6348;SDS011;3207;42.648;23.406;2023-03-01T11:53:01;7.20;;;6.03;;
6348;SDS011;3207;42.648;23.406;2023-03-01T11:56:03;6.43;;;5.80;;
6348;SDS011;3207;42.648;23.406;2023-03-01T12:01:40;6.17;;;5.40;;
6348;SDS011;3207;42.648;23.406;2023-03-01T12:07:30;5.23;;;4.73;;
6348;SDS011;3207;42.648;23.406;2023-03-01T12:13:01;4.80;;;4.20;;
6348;SDS011;3207;42.648;23.406;2023-03-01T12:15:52;7.90;;;4.87;;
6348;SDS011;3207;42.648;23.406;2023-03-01T12:18:37;5.00;;;4.17;;
6348;SDS011;3207;42.648;23.406;2023-03-01T12:21:23;6.33;;;4.33;;
6348;SDS011;3207;42.648;23.406;2023-03-01T12:27:20;6.23;;;4.90;;
6348;SDS011;3207;42.648;23.406;2023-03-01T12:30:14;6.70;;;5.40;;
6348;SDS011;3207;42.648;23.406;2023-03-01T12:32:51;7.17;;;4.60;;
6348;SDS011;3207;42.648;23.406;2023-03-01T12:35:35;6.83;;;5.10;;
6348;SDS011;3207;42.648;23.406;2023-03-01T12:38:16;5.77;;;4.87;;
6348;SDS011;3207;42.648;23.406;2023-03-01T12:43:57;6.83;;;5.43;;
6348;SDS011;3207;42.648;23.406;2023-03-01T12:46:41;4.83;;;4.33;;
6348;SDS011;3207;42.648;23.406;2023-03-01T12:49:19;6.17;;;5.47;;
6348;SDS011;3207;42.648;23.406;2023-03-01T12:51:51;5.50;;;5.00;;
6348;SDS011;3207;42.648;23.406;2023-03-01T12:54:26;5.10;;;4.47;;
6348;SDS011;3207;42.648;23.406;2023-03-01T12:56:55;5.83;;;5.23;;
6348;SDS011;3207;42.648;23.406;2023-03-01T12:59:27;9.50;;;5.90;;
6348;SDS011;3207;42.648;23.406;2023-03-01T13:02:01;6.57;;;5.63;;
6348;SDS011;3207;42.648;23.406;2023-03-01T13:04:38;7.67;;;4.90;;
6348;SDS011;3207;42.648;23.406;2023-03-01T13:07:21;7.90;;;5.77;;
6348;SDS011;3207;42.648;23.406;2023-03-01T13:09:55;6.27;;;5.57;;
6348;SDS011;3207;42.648;23.406;2023-03-01T13:12:46;5.93;;;5.33;;
6348;SDS011;3207;42.648;23.406;2023-03-01T13:15:34;5.50;;;4.90;;
6348;SDS011;3207;42.648;23.406;2023-03-01T13:18:03;6.93;;;6.00;;
6348;SDS011;3207;42.648;23.406;2023-03-01T13:20:51;5.07;;;4.50;;
6348;SDS011;3207;42.648;23.406;2023-03-01T13:23:28;6.17;;;5.57;;
6348;SDS011;3207;42.648;23.406;2023-03-01T13:26:12;7.77;;;5.97;;
6348;SDS011;3207;42.648;23.406;2023-03-01T13:28:50;8.83;;;5.80;;
6348;SDS011;3207;42.648;23.406;2023-03-01T13:34:43;7.20;;;5.83;;
6348;SDS011;3207;42.648;23.406;2023-03-01T13:37:18;6.67;;;5.90;;
6348;SDS011;3207;42.648;23.406;2023-03-01T13:39:47;5.70;;;4.93;;
6348;SDS011;3207;42.648;23.406;2023-03-01T13:42:34;11.20;;;6.77;;
6348;SDS011;3207;42.648;23.406;2023-03-01T13:45:15;7.87;;;6.30;;
6348;SDS011;3207;42.648;23.406;2023-03-01T13:47:45;7.20;;;5.77;;
6348;SDS011;3207;42.648;23.406;2023-03-01T13:50:18;5.67;;;5.00;;
6348;SDS011;3207;42.648;23.406;2023-03-01T13:52:49;7.07;;;6.20;;
6348;SDS011;3207;42.648;23.406;2023-03-01T13:55:19;6.70;;;5.43;;
6348;SDS011;3207;42.648;23.406;2023-03-01T13:57:50;9.10;;;5.97;;
6348;SDS011;3207;42.648;23.406;2023-03-01T14:00:33;7.93;;;5.77;;
6348;SDS011;3207;42.648;23.406;2023-03-01T14:03:08;7.70;;;5.70;;
6348;SDS011;3207;42.648;23.406;2023-03-01T14:05:39;8.37;;;6.43;;
6348;SDS011;3207;42.648;23.406;2023-03-01T14:11:04;6.80;;;5.53;;
6348;SDS011;3207;42.648;23.406;2023-03-01T14:14:01;5.93;;;5.03;;
6348;SDS011;3207;42.648;23.406;2023-03-01T14:16:58;5.33;;;4.80;;
6348;SDS011;3207;42.648;23.406;2023-03-01T14:19:34;5.20;;;4.70;;
6348;SDS011;3207;42.648;23.406;2023-03-01T14:22:04;8.03;;;6.10;;
6348;SDS011;3207;42.648;23.406;2023-03-01T14:24:44;6.47;;;5.30;;
6348;SDS011;3207;42.648;23.406;2023-03-01T14:27:14;6.83;;;5.87;;
6348;SDS011;3207;42.648;23.406;2023-03-01T14:29:42;6.47;;;4.93;;
6348;SDS011;3207;42.648;23.406;2023-03-01T14:32:17;4.87;;;4.37;;
6348;SDS011;3207;42.648;23.406;2023-03-01T14:34:46;6.47;;;5.37;;
6348;SDS011;3207;42.648;23.406;2023-03-01T14:37:20;6.83;;;5.63;;
6348;SDS011;3207;42.648;23.406;2023-03-01T14:39:48;7.20;;;5.27;;
6348;SDS011;3207;42.648;23.406;2023-03-01T14:42:16;6.43;;;4.93;;
6348;SDS011;3207;42.648;23.406;2023-03-01T14:44:44;7.70;;;5.93;;
6348;SDS011;3207;42.648;23.406;2023-03-01T14:47:14;8.47;;;6.10;;
6348;SDS011;3207;42.648;23.406;2023-03-01T14:49:47;7.33;;;6.33;;
6348;SDS011;3207;42.648;23.406;2023-03-01T14:52:21;6.80;;;5.60;;
6348;SDS011;3207;42.648;23.406;2023-03-01T14:54:52;6.40;;;5.47;;
6348;SDS011;3207;42.648;23.406;2023-03-01T14:57:21;8.73;;;6.73;;
6348;SDS011;3207;42.648;23.406;2023-03-01T14:59:50;8.27;;;6.10;;
6348;SDS011;3207;42.648;23.406;2023-03-01T15:02:20;7.97;;;6.17;;
6348;SDS011;3207;42.648;23.406;2023-03-01T15:04:51;7.77;;;6.47;;
6348;SDS011;3207;42.648;23.406;2023-03-01T15:07:23;8.83;;;6.83;;
6348;SDS011;3207;42.648;23.406;2023-03-01T15:09:54;8.67;;;6.10;;
6348;SDS011;3207;42.648;23.406;2023-03-01T15:12:38;9.07;;;6.03;;
6348;SDS011;3207;42.648;23.406;2023-03-01T15:15:21;7.10;;;6.10;;
6348;SDS011;3207;42.648;23.406;2023-03-01T15:17:59;7.87;;;6.60;;
6348;SDS011;3207;42.648;23.406;2023-03-01T15:20:27;10.03;;;7.67;;
6348;SDS011;3207;42.648;23.406;2023-03-01T15:23:01;9.87;;;6.80;;
6348;SDS011;3207;42.648;23.406;2023-03-01T15:25:29;8.67;;;7.40;;
6348;SDS011;3207;42.648;23.406;2023-03-01T15:27:58;9.53;;;7.23;;
6348;SDS011;3207;42.648;23.406;2023-03-01T15:30:29;9.43;;;7.87;;